Time;durP1;ratioP1;P1;durP2;ratioP2;P2;SDS_P1;SDS_P2;PMS_P1;PMS_P2;Temp;Humidity;BMP_temperature;BMP_pressure;BME280_temperature;BME280_humidity;BME280_pressure;Samples;Min_cycle;Max_cycle;Signal;HPM_P1;HPM_P2
2022/11/21 00:00:50;;;;;;;0.50;0.50;;;19.80;43.70;;;;;;5114298;28;20468;-11
2022/11/21 00:03:16;;;;;;;0.60;0.60;;;19.80;43.80;;;;;;5114323;28;20445;-11
2022/11/21 00:05:44;;;;;;;0.60;0.60;;;19.80;43.80;;;;;;5113885;28;20059;-11
2022/11/21 00:08:11;;;;;;;0.43;0.43;;;19.70;44.30;;;;;;5114134;28;20043;-11
2022/11/21 00:10:38;;;;;;;0.52;0.52;;;19.80;44.40;;;;;;5114641;28;20471;-11
2022/11/21 00:13:05;;;;;;;0.70;0.70;;;19.80;43.70;;;;;;5114388;28;20120;-11
2022/11/21 00:15:31;;;;;;;0.70;0.70;;;19.80;43.70;;;;;;5114685;28;20043;-11
2022/11/21 00:17:57;;;;;;;0.50;0.50;;;19.80;43.70;;;;;;5114649;28;20044;-11
2022/11/21 00:20:23;;;;;;;0.65;0.65;;;19.80;43.70;;;;;;5114070;28;20096;-11
2022/11/21 00:22:49;;;;;;;0.50;0.50;;;19.80;43.80;;;;;;5114065;28;20134;-11
2022/11/21 00:25:15;;;;;;;0.60;0.60;;;19.80;44.30;;;;;;5114622;28;20039;-11
2022/11/21 00:27:41;;;;;;;0.60;0.60;;;19.80;43.80;;;;;;5114222;28;20058;-11
2022/11/21 00:30:09;;;;;;;0.70;0.70;;;19.80;44.30;;;;;;5113867;28;20043;-11
2022/11/21 00:32:35;;;;;;;0.60;0.60;;;19.80;43.80;;;;;;5113986;28;20483;-10
2022/11/21 00:35:01;;;;;;;0.63;0.63;;;19.80;43.80;;;;;;5113859;28;20058;-11
2022/11/21 00:37:26;;;;;;;0.65;0.65;;;19.80;43.80;;;;;;5113663;28;20047;-11
2022/11/21 00:39:52;;;;;;;0.60;0.60;;;19.80;43.80;;;;;;5113701;28;20048;-11
2022/11/21 00:42:17;;;;;;;0.50;0.50;;;19.80;43.70;;;;;;5113696;28;20056;-11
2022/11/21 00:44:43;;;;;;;0.60;0.60;;;19.80;43.80;;;;;;5095644;28;20077;-11
2022/11/21 00:47:09;;;;;;;0.50;0.50;;;19.80;43.80;;;;;;5114260;28;20055;-11
2022/11/21 00:49:34;;;;;;;0.60;0.60;;;19.70;43.70;;;;;;5113297;28;20047;-11
2022/11/21 00:52:00;;;;;;;0.75;0.75;;;19.80;43.80;;;;;;5113798;28;20502;-11
2022/11/21 00:54:26;;;;;;;0.60;0.60;;;19.80;44.30;;;;;;5113632;28;20084;-11
2022/11/21 00:56:51;;;;;;;0.70;0.70;;;19.80;43.70;;;;;;5113574;28;20052;-11
2022/11/21 00:59:17;;;;;;;0.63;0.63;;;19.80;43.70;;;;;;5113869;28;20054;-11
2022/11/21 01:01:43;;;;;;;1.35;0.90;;;19.80;43.70;;;;;;5113538;28;20131;-11
2022/11/21 01:04:08;;;;;;;0.80;0.80;;;19.80;43.80;;;;;;5114054;28;20082;-11
2022/11/21 01:06:37;;;;;;;0.60;0.60;;;19.80;43.70;;;;;;5113396;28;20084;-10
2022/11/21 01:09:02;;;;;;;0.57;0.57;;;19.80;43.80;;;;;;5113189;28;20063;-11
2022/11/21 01:11:28;;;;;;;0.60;0.60;;;19.80;43.80;;;;;;5113230;28;20047;-11
2022/11/21 01:13:54;;;;;;;1.08;0.73;;;19.70;43.80;;;;;;5113303;28;20055;-11
2022/11/21 01:16:23;;;;;;;0.73;0.70;;;19.80;43.80;;;;;;5112473;28;20052;-11
2022/11/21 01:18:49;;;;;;;0.80;0.80;;;19.80;43.70;;;;;;5113359;28;20055;-11
2022/11/21 01:21:21;;;;;;;0.50;0.50;;;19.80;43.70;;;;;;5113166;28;20071;-11
2022/11/21 01:23:47;;;;;;;0.82;0.80;;;19.70;43.70;;;;;;5113683;28;20488;-11
2022/11/21 01:26:15;;;;;;;0.70;0.70;;;19.70;43.70;;;;;;5113090;28;20490;-11
2022/11/21 01:28:41;;;;;;;0.50;0.50;;;19.80;43.80;;;;;;5113045;28;20047;-11
2022/11/21 01:31:10;;;;;;;1.02;0.93;;;19.70;43.80;;;;;;5113032;28;20057;-11
2022/11/21 01:33:36;;;;;;;0.70;0.70;;;19.80;43.80;;;;;;5113679;28;20056;-11
2022/11/21 01:36:14;;;;;;;0.60;0.60;;;19.80;43.80;;;;;;5113392;28;20540;-11
2022/11/21 01:38:41;;;;;;;0.70;0.70;;;19.80;43.80;;;;;;5113306;28;20047;-11
2022/11/21 01:41:09;;;;;;;0.50;0.50;;;19.80;43.80;;;;;;5113137;28;20107;-11
2022/11/21 01:43:35;;;;;;;0.70;0.70;;;19.80;43.70;;;;;;5113310;28;20052;-11
2022/11/21 01:46:09;;;;;;;0.55;0.55;;;19.80;43.80;;;;;;5112917;28;20095;-11
2022/11/21 01:48:46;;;;;;;0.68;0.68;;;19.80;43.70;;;;;;5112857;28;20052;-11
2022/11/21 01:51:29;;;;;;;0.80;0.80;;;19.80;43.80;;;;;;5112720;28;20047;-11
2022/11/21 01:54:03;;;;;;;0.63;0.60;;;19.80;43.70;;;;;;5112760;28;20062;-11
2022/11/21 01:56:35;;;;;;;0.65;0.65;;;19.80;43.70;;;;;;5112777;28;20047;-11
2022/11/21 01:59:04;;;;;;;0.60;0.60;;;19.80;43.80;;;;;;5112893;28;20056;-11
2022/11/21 02:01:30;;;;;;;0.60;0.60;;;19.80;43.70;;;;;;5112715;28;20039;-11
2022/11/21 02:03:58;;;;;;;0.70;0.70;;;19.80;43.70;;;;;;5112697;28;20077;-10
2022/11/21 02:06:24;;;;;;;0.77;0.77;;;19.70;43.70;;;;;;5112763;28;20051;-11
2022/11/21 02:08:50;;;;;;;0.60;0.60;;;19.80;43.70;;;;;;5112466;28;20048;-11
2022/11/21 02:11:22;;;;;;;0.80;0.80;;;19.70;43.70;;;;;;5112902;28;20176;-11
2022/11/21 02:13:47;;;;;;;0.70;0.70;;;19.70;43.70;;;;;;5112611;28;20058;-11
2022/11/21 02:16:13;;;;;;;0.55;0.55;;;19.70;43.70;;;;;;5112376;28;20047;-11
2022/11/21 02:18:39;;;;;;;0.70;0.70;;;19.70;43.70;;;;;;5112438;28;20138;-11
2022/11/21 02:21:23;;;;;;;0.70;0.70;;;19.80;43.70;;;;;;5112333;28;20105;-10
2022/11/21 02:24:05;;;;;;;0.70;0.70;;;19.80;43.70;;;;;;5113010;28;20480;-11
2022/11/21 02:26:31;;;;;;;0.70;0.70;;;19.80;43.80;;;;;;5112933;28;20100;-11
2022/11/21 02:28:57;;;;;;;0.77;0.77;;;19.80;43.70;;;;;;5115002;28;20043;-11
2022/11/21 02:31:23;;;;;;;0.70;0.70;;;19.80;44.20;;;;;;5115860;28;20043;-11
2022/11/21 02:33:48;;;;;;;0.80;0.80;;;19.80;43.70;;;;;;5115877;28;20074;-11
2022/11/21 02:36:35;;;;;;;0.50;0.50;;;19.80;43.70;;;;;;5115789;28;20403;-11
2022/11/21 02:39:01;;;;;;;0.80;0.80;;;19.80;43.70;;;;;;5115565;28;20124;-11
2022/11/21 02:41:30;;;;;;;0.82;0.82;;;19.80;43.70;;;;;;5115714;28;20044;-11
2022/11/21 02:44:01;;;;;;;0.60;0.60;;;19.80;43.70;;;;;;5115665;28;20047;-11
2022/11/21 02:46:27;;;;;;;0.80;0.80;;;19.80;43.70;;;;;;5116019;28;20059;-11
2022/11/21 02:48:55;;;;;;;0.70;0.70;;;19.80;43.70;;;;;;5115873;28;20172;-11
2022/11/21 02:51:20;;;;;;;0.98;0.90;;;19.80;43.70;;;;;;5115616;28;20047;-10
2022/11/21 02:53:46;;;;;;;0.98;0.80;;;19.80;43.70;;;;;;5115764;28;20055;-11
2022/11/21 02:56:12;;;;;;;0.82;0.73;;;19.80;43.70;;;;;;5115764;28;20047;-11
2022/11/21 02:58:37;;;;;;;0.73;0.73;;;19.80;43.70;;;;;;5115592;28;20049;-11
2022/11/21 03:01:03;;;;;;;0.77;0.77;;;19.80;43.70;;;;;;5115412;28;20090;-11
2022/11/21 03:03:28;;;;;;;0.80;0.80;;;19.80;43.70;;;;;;5115373;28;20563;-11
2022/11/21 03:05:55;;;;;;;0.70;0.70;;;19.80;43.70;;;;;;5115224;28;20048;-11
2022/11/21 03:08:21;;;;;;;0.73;0.73;;;19.80;43.70;;;;;;5115220;28;20070;-11
2022/11/21 03:10:46;;;;;;;0.85;0.85;;;19.80;43.70;;;;;;5115873;28;20122;-11
2022/11/21 03:13:12;;;;;;;0.75;0.75;;;19.80;44.20;;;;;;5115678;28;20104;-11
2022/11/21 03:15:38;;;;;;;0.60;0.60;;;19.80;43.70;;;;;;5115183;28;20057;-11
2022/11/21 03:18:04;;;;;;;0.98;0.82;;;19.80;43.70;;;;;;5114934;28;20055;-11
2022/11/21 03:20:31;;;;;;;0.90;0.90;;;19.80;43.60;;;;;;5114923;28;20043;-11
2022/11/21 03:22:57;;;;;;;0.88;0.88;;;19.80;43.60;;;;;;5115356;28;20063;-11
2022/11/21 03:25:22;;;;;;;0.65;0.65;;;19.80;43.60;;;;;;5096651;28;20070;-11
2022/11/21 03:27:52;;;;;;;1.05;0.98;;;19.80;43.60;;;;;;5115036;28;20054;-11
2022/11/21 03:30:20;;;;;;;0.77;0.77;;;19.80;43.70;;;;;;5115532;28;20043;-11
2022/11/21 03:32:45;;;;;;;0.75;0.73;;;19.80;43.60;;;;;;5114947;28;20483;-11
2022/11/21 03:35:11;;;;;;;0.80;0.80;;;19.80;43.60;;;;;;5114873;28;20055;-11
2022/11/21 03:37:37;;;;;;;0.80;0.80;;;19.80;43.60;;;;;;5115065;28;20403;-11
2022/11/21 03:40:03;;;;;;;0.80;0.80;;;19.70;43.60;;;;;;5114415;28;20043;-11
2022/11/21 03:42:28;;;;;;;0.90;0.90;;;19.80;43.70;;;;;;5114956;28;20082;-11
2022/11/21 03:44:54;;;;;;;1.02;0.80;;;19.80;43.60;;;;;;5115051;28;20083;-11
2022/11/21 03:47:20;;;;;;;0.70;0.70;;;19.80;44.10;;;;;;5114907;28;20458;-11
2022/11/21 03:49:46;;;;;;;0.80;0.80;;;19.80;43.70;;;;;;5114768;28;20047;-11
2022/11/21 03:52:12;;;;;;;1.08;0.98;;;19.80;43.60;;;;;;5114629;28;20475;-11
2022/11/21 03:54:37;;;;;;;0.80;0.80;;;19.80;43.60;;;;;;5114593;28;20047;-11
2022/11/21 03:57:03;;;;;;;0.90;0.90;;;19.80;43.60;;;;;;5114806;28;20063;-10
2022/11/21 03:59:28;;;;;;;1.10;1.00;;;19.80;43.60;;;;;;5114964;28;20058;-11
2022/11/21 04:01:54;;;;;;;0.65;0.65;;;19.80;43.60;;;;;;5114305;28;20488;-11
2022/11/21 04:04:20;;;;;;;0.70;0.70;;;19.80;43.60;;;;;;5114259;28;20047;-11
2022/11/21 04:06:45;;;;;;;0.88;0.70;;;19.80;43.60;;;;;;5114589;28;20056;-12
2022/11/21 04:09:11;;;;;;;0.73;0.73;;;19.80;43.60;;;;;;5114687;28;20055;-11
2022/11/21 04:11:36;;;;;;;0.80;0.80;;;19.80;43.60;;;;;;5114653;28;20055;-11
2022/11/21 04:14:02;;;;;;;1.10;0.90;;;19.80;43.60;;;;;;5114492;28;20407;-11
2022/11/21 04:16:28;;;;;;;0.80;0.80;;;19.80;43.60;;;;;;5113991;28;20061;-11
2022/11/21 04:18:53;;;;;;;0.70;0.70;;;19.80;43.60;;;;;;5114641;28;20079;-11
2022/11/21 04:21:19;;;;;;;0.77;0.77;;;19.80;43.60;;;;;;5114065;28;20462;-11
2022/11/21 04:23:45;;;;;;;0.80;0.80;;;19.80;43.60;;;;;;5114280;28;20054;-11
2022/11/21 04:26:11;;;;;;;1.38;1.17;;;19.80;43.60;;;;;;5114650;28;20090;-11
2022/11/21 04:28:37;;;;;;;0.73;0.73;;;19.80;43.50;;;;;;5114349;28;20044;-11
2022/11/21 04:31:07;;;;;;;0.68;0.63;;;19.80;43.50;;;;;;5095622;28;20047;-11
2022/11/21 04:33:32;;;;;;;0.80;0.80;;;19.80;43.50;;;;;;5114257;28;20105;-11
2022/11/21 04:35:58;;;;;;;1.00;0.88;;;19.80;44.00;;;;;;5113952;28;20052;-11
2022/11/21 04:38:24;;;;;;;1.27;1.17;;;19.80;43.50;;;;;;5113896;28;20142;-11
2022/11/21 04:40:50;;;;;;;0.88;0.88;;;19.80;43.50;;;;;;5113770;28;20051;-11
2022/11/21 04:43:15;;;;;;;0.80;0.80;;;19.80;43.50;;;;;;5113797;28;20135;-11
2022/11/21 04:45:43;;;;;;;0.85;0.85;;;19.80;43.50;;;;;;5113801;28;20134;-11
2022/11/21 04:48:09;;;;;;;0.95;0.95;;;19.80;43.50;;;;;;5113365;28;20551;-11
2022/11/21 04:50:35;;;;;;;0.65;0.65;;;19.80;43.50;;;;;;5114219;28;20047;-11
2022/11/21 04:53:00;;;;;;;1.23;0.98;;;19.80;43.50;;;;;;5114220;28;20052;-11
2022/11/21 04:55:29;;;;;;;0.95;0.95;;;19.80;43.50;;;;;;5113838;28;20189;-11
2022/11/21 04:57:54;;;;;;;0.80;0.80;;;19.80;43.50;;;;;;5113400;28;20510;-11
2022/11/21 05:00:20;;;;;;;1.02;0.82;;;19.80;43.50;;;;;;5113351;28;20040;-11
2022/11/21 05:02:46;;;;;;;0.80;0.80;;;19.80;43.50;;;;;;5113772;28;20054;-11
2022/11/21 05:05:12;;;;;;;0.90;0.90;;;19.80;43.50;;;;;;5113839;28;20070;-11
2022/11/21 05:07:38;;;;;;;1.02;0.93;;;19.80;43.50;;;;;;5095128;28;20054;-11
2022/11/21 05:10:08;;;;;;;1.02;0.95;;;19.80;44.00;;;;;;5113292;28;20051;-11
2022/11/21 05:15:18;;;;;;;1.00;0.95;;;19.80;43.50;;;;;;5113867;28;20043;-11
2022/11/21 05:17:44;;;;;;;0.70;0.70;;;19.80;43.50;;;;;;5113282;28;20062;-11
2022/11/21 05:20:10;;;;;;;1.00;0.90;;;19.80;44.00;;;;;;5113071;28;20047;-11
2022/11/21 05:22:36;;;;;;;0.90;0.90;;;19.80;43.50;;;;;;5113288;28;20134;-11
2022/11/21 05:25:03;;;;;;;1.00;0.95;;;19.80;43.50;;;;;;5113189;28;20086;-10
2022/11/21 05:27:28;;;;;;;0.80;0.80;;;19.80;43.50;;;;;;5113425;28;20063;-11
2022/11/21 05:29:54;;;;;;;0.90;0.90;;;19.80;43.50;;;;;;5113159;28;20122;-11
2022/11/21 05:32:20;;;;;;;1.00;1.00;;;19.80;43.50;;;;;;5113088;28;20050;-11
2022/11/21 05:34:46;;;;;;;0.80;0.80;;;19.80;43.50;;;;;;5113068;28;20047;-11
2022/11/21 05:37:12;;;;;;;0.73;0.73;;;19.70;43.40;;;;;;5113053;28;20138;-11
2022/11/21 05:39:37;;;;;;;0.82;0.82;;;19.70;43.40;;;;;;5112678;28;20173;-11
2022/11/21 05:42:03;;;;;;;1.00;0.90;;;19.70;43.40;;;;;;5112812;28;20048;-11
2022/11/21 05:44:29;;;;;;;1.00;0.95;;;19.70;43.50;;;;;;5113539;28;20058;-11
2022/11/21 05:46:54;;;;;;;2.10;1.00;;;19.70;43.50;;;;;;5112813;28;20153;-11
2022/11/21 05:49:20;;;;;;;0.88;0.80;;;19.70;43.50;;;;;;5112693;28;20499;-11
2022/11/21 05:51:46;;;;;;;0.73;0.70;;;19.70;43.50;;;;;;5112932;28;20096;-11
2022/11/21 05:54:13;;;;;;;0.70;0.70;;;19.70;43.50;;;;;;5113333;28;20097;-11
2022/11/21 05:56:39;;;;;;;0.90;0.90;;;19.70;43.50;;;;;;5112813;28;20055;-11
2022/11/21 05:59:05;;;;;;;1.02;0.85;;;19.70;43.50;;;;;;5113020;28;20376;-11
2022/11/21 06:04:15;;;;;;;1.25;1.15;;;19.70;43.50;;;;;;5115943;28;20056;-11
2022/11/21 06:06:41;;;;;;;1.00;0.98;;;19.70;43.50;;;;;;5116795;28;20148;-11
2022/11/21 06:09:06;;;;;;;1.10;1.00;;;19.70;43.50;;;;;;5116304;28;20040;-11
2022/11/21 06:11:32;;;;;;;1.00;1.00;;;19.70;43.50;;;;;;5097827;28;20407;-11
2022/11/21 06:13:58;;;;;;;0.90;0.90;;;19.70;44.10;;;;;;5116613;28;20059;-11
2022/11/21 06:16:23;;;;;;;0.90;0.90;;;19.70;43.50;;;;;;5116139;28;20059;-11
2022/11/21 06:18:53;;;;;;;1.25;1.10;;;19.70;43.50;;;;;;5115881;28;20078;-11
2022/11/21 06:21:21;;;;;;;1.02;1.02;;;19.70;43.50;;;;;;5115946;28;20047;-10
2022/11/21 06:23:50;;;;;;;1.15;0.98;;;19.70;43.50;;;;;;5116013;28;20500;-11
2022/11/21 06:26:19;;;;;;;0.80;0.80;;;19.70;43.60;;;;;;5115955;28;20514;-11
2022/11/21 06:28:45;;;;;;;0.90;0.90;;;19.60;43.50;;;;;;5115998;28;20186;-11
2022/11/21 06:31:31;;;;;;;1.05;1.00;;;19.70;43.50;;;;;;5116303;28;20500;-11
2022/11/21 06:33:58;;;;;;;1.15;1.05;;;19.70;43.50;;;;;;5115934;28;20081;-11
2022/11/21 06:36:24;;;;;;;1.10;1.00;;;19.70;43.50;;;;;;5115870;28;20051;-11
2022/11/21 06:38:53;;;;;;;0.90;0.90;;;19.70;43.50;;;;;;5115973;28;20092;-11
2022/11/21 06:41:21;;;;;;;1.20;1.10;;;19.70;43.50;;;;;;5115843;28;20128;-11
2022/11/21 06:43:47;;;;;;;1.02;1.02;;;19.70;43.50;;;;;;5115762;28;20070;-11
2022/11/21 06:46:14;;;;;;;1.27;1.17;;;19.70;43.50;;;;;;5116083;28;20479;-11
2022/11/21 06:48:40;;;;;;;1.10;0.90;;;19.70;43.50;;;;;;5115506;28;20051;-11
2022/11/21 06:51:11;;;;;;;1.17;1.08;;;19.70;43.50;;;;;;5115561;28;20070;-11
2022/11/21 06:53:37;;;;;;;1.08;1.08;;;19.70;43.50;;;;;;5115594;28;20058;-11
2022/11/21 06:56:03;;;;;;;1.00;1.00;;;19.70;43.40;;;;;;5115429;28;20063;-11
2022/11/21 06:58:30;;;;;;;1.10;1.10;;;19.70;43.40;;;;;;5115196;28;20051;-11
2022/11/21 07:00:56;;;;;;;0.85;0.85;;;19.70;43.40;;;;;;5096989;28;20043;-11
2022/11/21 07:03:22;;;;;;;1.20;1.10;;;19.70;43.40;;;;;;5115402;28;20074;-11
2022/11/21 07:05:48;;;;;;;0.93;0.90;;;19.70;43.30;;;;;;5115333;28;20079;-11
2022/11/21 07:08:14;;;;;;;1.05;1.02;;;19.80;43.40;;;;;;5114940;28;20513;-11
2022/11/21 07:10:40;;;;;;;1.35;1.25;;;19.80;43.40;;;;;;5115020;28;20047;-11
2022/11/21 07:13:21;;;;;;;1.30;1.20;;;19.80;43.30;;;;;;5115009;28;20055;-11
2022/11/21 07:15:52;;;;;;;1.10;1.00;;;19.80;43.30;;;;;;5113815;28;20083;-11
2022/11/21 07:18:19;;;;;;;1.30;1.20;;;19.80;43.30;;;;;;5114739;28;20113;-11
2022/11/21 07:20:46;;;;;;;1.13;1.02;;;19.80;43.20;;;;;;5114348;28;20066;-11
2022/11/21 07:23:12;;;;;;;1.45;1.10;;;19.80;43.20;;;;;;5114879;28;20379;-11
2022/11/21 07:25:41;;;;;;;1.20;1.10;;;19.80;43.20;;;;;;5114005;28;20138;-11
2022/11/21 07:28:07;;;;;;;1.20;1.10;;;19.80;43.10;;;;;;5095537;28;20105;-11
2022/11/21 07:30:34;;;;;;;1.20;1.10;;;19.80;43.10;;;;;;5114066;28;20047;-11
2022/11/21 07:33:03;;;;;;;1.25;1.13;;;19.80;43.10;;;;;;5114027;28;20164;-11
2022/11/21 07:35:29;;;;;;;1.23;1.13;;;19.80;43.00;;;;;;5113674;28;20059;-11
2022/11/21 07:37:54;;;;;;;0.90;0.90;;;19.80;43.30;;;;;;5113640;28;20484;-11
2022/11/21 07:40:20;;;;;;;1.23;1.10;;;19.80;43.00;;;;;;5114098;28;20044;-11
2022/11/21 07:42:47;;;;;;;1.15;1.10;;;19.80;43.00;;;;;;5113912;28;20487;-10
2022/11/21 07:45:13;;;;;;;1.42;1.33;;;19.80;43.00;;;;;;5113980;28;20126;-11
2022/11/21 07:47:39;;;;;;;1.30;1.20;;;19.80;43.00;;;;;;5113636;28;20502;-11
2022/11/21 07:50:07;;;;;;;1.50;1.40;;;19.80;43.10;;;;;;5113663;28;20095;-11
2022/11/21 07:52:32;;;;;;;1.35;1.17;;;19.80;43.10;;;;;;5113759;28;20059;-11
2022/11/21 07:55:01;;;;;;;1.45;1.20;;;19.80;43.10;;;;;;5113766;28;20047;-11
2022/11/21 07:57:27;;;;;;;1.50;1.40;;;19.80;43.10;;;;;;5113503;28;20043;-11
2022/11/21 07:59:52;;;;;;;2.05;1.10;;;19.80;43.20;;;;;;5113622;28;20059;-11
2022/11/21 08:02:20;;;;;;;1.30;1.20;;;19.90;43.20;;;;;;5114095;28;20052;-11
2022/11/21 08:04:47;;;;;;;1.15;1.05;;;19.80;43.10;;;;;;5113481;28;20044;-11
2022/11/21 08:07:14;;;;;;;1.13;1.08;;;19.90;43.10;;;;;;5113100;28;20048;-11
2022/11/21 08:09:39;;;;;;;1.30;1.20;;;19.90;43.10;;;;;;5113566;28;20367;-10
2022/11/21 08:12:05;;;;;;;1.45;1.35;;;19.90;43.10;;;;;;5113156;28;20109;-11
2022/11/21 08:14:32;;;;;;;1.17;1.08;;;19.80;43.10;;;;;;5112969;28;20131;-11
2022/11/21 08:16:58;;;;;;;1.48;1.33;;;19.80;43.20;;;;;;5113090;28;20055;-11
2022/11/21 08:19:24;;;;;;;1.40;1.30;;;19.90;43.20;;;;;;5112532;28;20054;-11
2022/11/21 08:21:49;;;;;;;2.15;1.35;;;19.90;43.20;;;;;;5112900;28;20105;-11
2022/11/21 08:24:16;;;;;;;1.23;1.13;;;19.90;43.20;;;;;;5094779;28;20051;-11
2022/11/21 08:26:43;;;;;;;1.23;1.13;;;19.90;43.20;;;;;;5112569;28;20079;-11
2022/11/21 08:29:10;;;;;;;1.17;1.00;;;19.90;43.20;;;;;;5112639;28;20055;-11
2022/11/21 08:31:37;;;;;;;1.42;1.20;;;19.90;43.20;;;;;;5112906;28;20052;-11
2022/11/21 08:34:03;;;;;;;1.25;1.15;;;19.90;43.10;;;;;;5113711;28;20052;-11
2022/11/21 08:36:29;;;;;;;1.50;1.40;;;19.90;43.10;;;;;;5112983;28;20388;-11
2022/11/21 08:38:55;;;;;;;1.38;1.27;;;19.90;43.10;;;;;;5093302;28;20089;-11
2022/11/21 08:44:06;;;;;;;2.15;1.50;;;19.90;43.10;;;;;;5112895;28;20056;-11
2022/11/21 08:46:36;;;;;;;1.30;1.20;;;19.90;43.10;;;;;;5112775;28;20047;-10
2022/11/21 08:49:05;;;;;;;1.60;1.40;;;19.90;43.10;;;;;;5112732;28;20047;-11
2022/11/21 08:51:32;;;;;;;1.55;1.35;;;19.90;43.70;;;;;;5112836;28;20058;-11
2022/11/21 08:53:58;;;;;;;1.33;1.23;;;19.90;43.10;;;;;;5112737;28;20093;-11
2022/11/21 08:56:24;;;;;;;1.70;1.60;;;19.90;43.10;;;;;;5094922;28;20062;-11
2022/11/21 08:58:50;;;;;;;1.83;1.35;;;20.00;43.10;;;;;;5113260;28;20134;-11
2022/11/21 09:01:16;;;;;;;1.55;1.45;;;19.90;43.00;;;;;;5112630;28;20484;-11
2022/11/21 09:03:42;;;;;;;1.33;1.23;;;20.00;43.00;;;;;;5093193;28;20051;-10
2022/11/21 09:06:08;;;;;;;1.60;1.50;;;20.00;43.00;;;;;;5093852;28;20146;-11
2022/11/21 09:08:33;;;;;;;1.45;1.35;;;20.00;43.10;;;;;;5112675;28;20051;-11
2022/11/21 09:11:07;;;;;;;2.25;1.63;;;20.00;43.10;;;;;;5094187;28;20043;-11
2022/11/21 09:13:34;;;;;;;1.58;1.40;;;19.90;43.00;;;;;;5112773;28;20119;-11
2022/11/21 09:18:45;;;;;;;1.70;1.40;;;20.00;43.00;;;;;;5112743;28;20047;-11
2022/11/21 09:21:15;;;;;;;1.85;1.52;;;20.00;43.10;;;;;;5092255;28;20052;-11
2022/11/21 09:23:41;;;;;;;1.60;1.40;;;20.00;43.10;;;;;;5112462;28;20048;-11
2022/11/21 09:26:07;;;;;;;1.73;1.50;;;20.00;43.10;;;;;;5112387;28;20495;-11
2022/11/21 09:28:34;;;;;;;2.63;1.60;;;20.00;43.10;;;;;;5110162;28;20163;-11
2022/11/21 09:31:02;;;;;;;3.13;1.60;;;20.00;43.10;;;;;;5112414;28;20503;-11
2022/11/21 09:33:28;;;;;;;1.80;1.60;;;20.00;43.60;;;;;;5112447;28;20120;-11
2022/11/21 09:35:56;;;;;;;2.78;2.00;;;20.00;43.10;;;;;;5112589;28;20054;-11
2022/11/21 09:38:22;;;;;;;1.77;1.50;;;20.00;43.20;;;;;;5111242;28;20043;-11
2022/11/21 09:40:48;;;;;;;1.67;1.55;;;20.00;43.10;;;;;;5112190;28;20361;-11
2022/11/21 09:43:47;;;;;;;1.98;1.70;;;20.00;43.10;;;;;;5112896;28;20047;-10
2022/11/21 09:46:19;;;;;;;1.75;1.65;;;20.00;43.10;;;;;;5112514;28;20448;-11
2022/11/21 09:48:57;;;;;;;1.48;1.27;;;20.00;43.20;;;;;;5112779;28;20062;-11
2022/11/21 09:51:26;;;;;;;2.50;2.00;;;20.10;43.20;;;;;;5112157;28;20504;-11
2022/11/21 09:54:10;;;;;;;2.40;1.70;;;20.10;43.20;;;;;;5112092;28;20051;-12
2022/11/21 09:56:39;;;;;;;1.95;1.80;;;20.10;43.10;;;;;;5093152;28;20075;-11
2022/11/21 09:59:28;;;;;;;2.38;1.80;;;20.10;43.10;;;;;;5112213;28;20048;-11
2022/11/21 10:01:54;;;;;;;1.73;1.60;;;20.10;43.10;;;;;;5112278;28;20070;-10
2022/11/21 10:04:20;;;;;;;2.85;1.90;;;20.10;43.10;;;;;;5111830;28;20052;-11
2022/11/21 10:07:04;;;;;;;1.50;1.40;;;20.10;43.20;;;;;;5111649;28;20054;-11
2022/11/21 10:09:58;;;;;;;2.30;2.00;;;20.10;43.20;;;;;;5091638;28;20441;-11
2022/11/21 10:12:35;;;;;;;3.03;2.10;;;20.10;43.20;;;;;;5112543;28;20054;-11
2022/11/21 10:15:24;;;;;;;2.65;1.63;;;20.10;43.30;;;;;;5112163;28;20050;-11
2022/11/21 10:18:17;;;;;;;2.50;1.80;;;20.10;43.40;;;;;;5111889;28;20400;-11
2022/11/21 10:20:54;;;;;;;2.53;1.70;;;20.00;43.40;;;;;;5111817;28;20399;-11
2022/11/21 10:23:29;;;;;;;1.92;1.73;;;20.00;43.40;;;;;;5112196;28;20047;-11
2022/11/21 10:26:03;;;;;;;3.22;1.90;;;20.10;43.40;;;;;;5111875;28;20056;-11
2022/11/21 10:28:43;;;;;;;2.45;1.63;;;20.10;43.40;;;;;;5111624;28;20086;-11
2022/11/21 10:31:11;;;;;;;4.20;1.60;;;20.00;44.00;;;;;;5094176;28;20130;-11
2022/11/21 10:33:39;;;;;;;1.77;1.60;;;20.00;43.40;;;;;;5093205;28;20399;-11
2022/11/21 10:36:27;;;;;;;2.88;1.70;;;20.00;43.50;;;;;;5111747;28;20067;-11
2022/11/21 10:39:01;;;;;;;4.03;1.98;;;20.00;43.50;;;;;;5111473;28;20517;-11
2022/11/21 10:41:57;;;;;;;3.97;2.10;;;20.00;43.50;;;;;;5111543;28;20066;-11
2022/11/21 10:47:30;;;;;;;2.92;1.95;;;20.00;43.40;;;;;;5109760;28;20044;-12
2022/11/21 10:50:09;;;;;;;2.13;1.85;;;20.10;43.50;;;;;;5114448;28;20044;-11
2022/11/21 10:52:48;;;;;;;2.30;1.92;;;20.10;43.40;;;;;;5115427;28;20059;-11
2022/11/21 10:55:15;;;;;;;5.30;2.10;;;20.10;43.50;;;;;;5115740;28;20079;-11
2022/11/21 10:57:44;;;;;;;1.90;1.70;;;20.10;43.50;;;;;;5115584;28;20403;-11
2022/11/21 11:00:14;;;;;;;4.50;1.90;;;20.00;43.40;;;;;;5114941;28;20403;-11
2022/11/21 11:03:03;;;;;;;1.98;1.70;;;20.10;43.50;;;;;;5115065;28;20059;-11
2022/11/21 11:05:40;;;;;;;2.20;2.00;;;20.00;43.40;;;;;;5098643;28;20161;-11
2022/11/21 11:08:11;;;;;;;3.05;1.65;;;20.00;43.50;;;;;;5115278;28;20052;-11
2022/11/21 11:10:42;;;;;;;2.03;1.88;;;20.00;43.50;;;;;;5111128;28;20048;-11
2022/11/21 11:13:34;;;;;;;;;;;20.10;43.50;;;;;;5114395;28;20062;-11
2022/11/21 11:16:02;;;;;;;3.03;1.75;;;20.10;43.50;;;;;;5115251;28;19959;-11
2022/11/21 11:18:30;;;;;;;2.72;2.08;;;20.10;43.40;;;;;;5115152;28;20055;-11
2022/11/21 11:21:14;;;;;;;2.50;1.98;;;20.10;43.40;;;;;;5114422;28;20139;-11
2022/11/21 11:23:40;;;;;;;3.08;1.90;;;20.10;43.40;;;;;;5114851;28;20441;-11
2022/11/21 11:26:20;;;;;;;3.45;2.35;;;20.10;43.40;;;;;;5114622;28;20075;-11
2022/11/21 11:28:46;;;;;;;3.17;1.60;;;20.10;43.40;;;;;;5114806;28;20175;-10
2022/11/21 11:31:12;;;;;;;2.33;2.10;;;20.10;43.40;;;;;;5114953;28;20044;-11
2022/11/21 11:33:48;;;;;;;4.47;1.77;;;20.10;43.40;;;;;;5114488;28;20074;-11
2022/11/21 11:36:29;;;;;;;2.90;2.10;;;20.10;43.40;;;;;;5110286;28;20496;-12
2022/11/21 11:39:02;;;;;;;2.25;2.05;;;20.10;43.40;;;;;;5112103;28;20048;-13
2022/11/21 11:47:44;;;;;;;1.98;1.67;;;20.10;43.40;;;;;;5113112;28;20059;-11
2022/11/21 11:50:16;;;;;;;3.80;2.03;;;20.10;43.40;;;;;;5113343;28;20052;-12
2022/11/21 11:53:04;;;;;;;3.50;1.83;;;20.10;43.30;;;;;;5114441;28;20459;-11
2022/11/21 11:55:46;;;;;;;2.50;1.88;;;20.10;43.40;;;;;;5114249;28;20047;-11
2022/11/21 11:58:24;;;;;;;;;;;20.10;43.40;;;;;;5115206;28;20531;-11
2022/11/21 12:01:07;;;;;;;2.03;1.50;;;20.10;43.30;;;;;;5113989;28;20024;-10
2022/11/21 12:03:59;;;;;;;2.33;2.10;;;20.10;43.30;;;;;;5114422;28;20108;-11
2022/11/21 12:06:48;;;;;;;2.92;2.17;;;20.10;43.30;;;;;;5075253;28;20051;-11
2022/11/21 12:09:23;;;;;;;3.97;2.45;;;20.10;43.30;;;;;;5113814;28;20052;-11
2022/11/21 12:12:10;;;;;;;4.88;2.00;;;20.10;43.30;;;;;;5113914;28;20480;-11
2022/11/21 12:18:17;;;;;;;2.03;1.83;;;20.10;43.40;;;;;;5113382;28;20484;-11
2022/11/21 12:20:58;;;;;;;3.38;1.90;;;20.10;43.30;;;;;;5113742;28;20040;-11
2022/11/21 12:23:50;;;;;;;2.83;2.05;;;20.10;43.40;;;;;;5113479;28;20424;-11
2022/11/21 12:27:04;;;;;;;2.53;1.83;;;20.10;43.30;;;;;;5113613;28;20411;-11
2022/11/21 12:30:05;;;;;;;3.25;2.35;;;20.10;43.30;;;;;;5008390;28;20057;-13
2022/11/21 12:32:49;;;;;;;2.97;2.20;;;20.10;43.30;;;;;;5008125;28;20457;-11
2022/11/21 12:35:21;;;;;;;2.88;2.13;;;20.10;43.20;;;;;;5095544;28;20047;-11
2022/11/21 12:38:11;;;;;;;2.90;2.13;;;20.10;43.30;;;;;;5114106;28;20055;-11
2022/11/21 12:40:49;;;;;;;2.55;2.08;;;20.10;43.30;;;;;;5113712;28;20126;-11
2022/11/21 12:43:23;;;;;;;2.80;2.15;;;20.10;43.30;;;;;;5113514;28;20580;-11
2022/11/21 12:46:01;;;;;;;3.85;2.03;;;20.10;43.20;;;;;;5113636;28;20502;-11
2022/11/21 12:54:47;;;;;;;3.40;2.17;;;20.10;43.20;;;;;;5113948;28;20073;-11
2022/11/21 12:57:18;;;;;;;2.03;1.75;;;20.10;43.20;;;;;;5112064;28;20055;-11
2022/11/21 13:00:12;;;;;;;2.28;2.08;;;20.10;43.30;;;;;;5113181;28;20048;-11
2022/11/21 13:02:52;;;;;;;2.55;1.55;;;20.10;43.30;;;;;;5113230;28;20414;-11
2022/11/21 13:05:26;;;;;;;1.67;1.57;;;20.00;43.30;;;;;;5113417;28;20442;-11
2022/11/21 13:08:02;;;;;;;2.58;1.83;;;20.00;43.30;;;;;;5113387;28;20077;-11
2022/11/21 13:10:28;;;;;;;2.70;1.98;;;20.00;43.30;;;;;;5113721;28;20055;-11
2022/11/21 13:13:25;;;;;;;3.50;2.30;;;20.00;43.30;;;;;;5111803;28;20062;-11
2022/11/21 13:16:09;;;;;;;2.13;1.80;;;20.00;43.30;;;;;;5113364;28;20058;-11
2022/11/21 13:18:43;;;;;;;2.25;1.90;;;20.00;43.30;;;;;;5108943;28;20048;-11
2022/11/21 13:21:46;;;;;;;3.05;2.10;;;20.00;43.30;;;;;;5109693;28;20476;-11
2022/11/21 13:24:44;;;;;;;2.50;1.83;;;20.00;43.30;;;;;;5107766;28;20086;-11
2022/11/21 13:27:36;;;;;;;2.33;1.80;;;20.00;43.30;;;;;;5112843;28;20415;-11
2022/11/21 13:30:08;;;;;;;2.20;2.00;;;20.00;43.80;;;;;;5112723;28;20444;-11
2022/11/21 13:32:47;;;;;;;2.20;2.00;;;20.00;43.30;;;;;;5112532;28;20066;-11